EFMAEFTU

Guest
Details From EFMA - Mariehamn
To EFTU - Turku
Flight Number -
Tags generated
Created
Modified
Stats Distance 74 nm / 137 km
Max Altitude 6,500 ft / 1,981 m
Waypoints 4
Social Downloads 0
Likes 0
Share VATSIM

Download

Looking for another format? Having issues loading an existing format? Contact us
Advertisement - Login to hide

Notes

Basic altitude profile: - Ascent Rate: 2500ft/min - Ascent Speed: 250kts - Cruise Altitude: 35000ft - Cruise Speed: 420kts - Descent Rate: 1500ft/min - Descent Speed: 250kts Options: - Use NATs: yes - Use PACOTS: yes - Use low airways: yes - Use high airways: yes

Route

EFMA GIMUL T86 RUS EFTU

ID Type Via Altitude Latitude Longitude Leg Dist Tot Dist Heading (true) Name
O EFMA APT - 0 ft / 0 m 60.12220˚ 19.89816˚ - 0 nm - Mariehamn
GIMUL FIX - 5,800 ft / 1,768 m 60.38222˚ 21.38889˚ 47 nm 47 nm 70° / 71° -
RUS VOR T86 (AWY-LO) 6,500 ft / 1,981 m 60.51519˚ 22.25653˚ 26 nm 73 nm 72° / 73° RUSKO VOR-DME
O EFTU APT - 0 ft / 0 m 60.51412˚ 22.26281˚ 0 nm 74 nm 109° / 109° Turku

Altitude Profile

Advertisement - Login to hide

EFMA

Details ICAO EFMA (MHQ)
Name Mariehamn
Region Finland
Timezone Europe/Mariehamn (UTC+2.0)
Stats Elevation 17 ft / 5 m (AMSL)
Location 60.122203° 19.898157°
Runways 1
Magnetic Variation 6.955° E

METAR

EFMA 121720Z AUTO 33010KT 300V360 9999 -SHSN SCT008 BKN112 01/M01 Q0985

Decode

TAF

Not found

Departure Runways

ID Width Length Bearing (true) Bearing (mag) Surface Threshold Offset Overrun Length
03 197 ft / 60 m 6,231 ft / 1,899 m 23.33° 16.38° Asphalt 0 ft / 0 m 161 ft / 49 m
21 197 ft / 60 m 6,231 ft / 1,899 m 203.35° 196.40° Asphalt 0 ft / 0 m 150 ft / 46 m

EFTU

Details ICAO EFTU (TKU)
Name Turku
Region Finland
Timezone Europe/Helsinki (UTC+2.0)
Stats Elevation 161 ft / 49 m (AMSL)
Location 60.514115° 22.262812°
Runways 1
Magnetic Variation 7.973° E

METAR

EFTU 121720Z AUTO 32006KT 6000 -SN OVC002/// M00/M00 Q0982

Decode

TAF

TAF EFTU 121433Z 1215/1315 11004KT 8000 -SN FEW004 OVC006 TEMPO 1215/1217 1200 SNRA OVC004 TEMPO 1217/1218 6000 -RASN BKN004 BECMG 1218/1220 28010KT 8000 BKN015 PROB30 TEMPO 1223/1303 4000 -SN

Decode

Destination Runways

ID Width Length Bearing (true) Bearing (mag) Surface Threshold Offset Overrun Length
08 197 ft / 60 m 8,175 ft / 2,492 m 84.82° 76.85° Asphalt 0 ft / 0 m 0 ft / 0 m
26 197 ft / 60 m 8,175 ft / 2,492 m 264.86° 256.89° Asphalt 0 ft / 0 m 0 ft / 0 m

Approach Navaids

Runway Type Ident Frequency Range Bearing (true) Bearing (mag) Slope Elevation
26 Localiser TU 109.50 MHz 18 nm / 33 km 264.82° 256.84° - 161 ft / 49 m (AMSL)
26 Glidescope TU 109.50 MHz 10 nm / 19 km 264.84° 256.87° 3.00° 161 ft / 49 m (AMSL)
26 DME TU 109.50 MHz 18 nm / 33 km - - - 200 ft / 61 m (AMSL)

Popular Alternatives